Time;durP1;ratioP1;P1;durP2;ratioP2;P2;SDS_P1;SDS_P2;PMS_P1;PMS_P2;Temp;Humidity;BMP_temperature;BMP_pressure;BME280_temperature;BME280_humidity;BME280_pressure;Samples;Min_cycle;Max_cycle;Signal;HPM_P1;HPM_P2
2023/01/28 00:00:36;;;;;;;60.47;53.97;;;;;;;-0.92;100.00;100732.25;5062346;28;20497;-79
2023/01/28 00:03:02;;;;;;;62.40;54.10;;;;;;;-0.90;100.00;100732.97;5063249;28;20495;-79
2023/01/28 00:05:29;;;;;;;57.15;51.20;;;;;;;-0.89;100.00;100733.78;5057446;28;20106;-79
2023/01/28 00:07:57;;;;;;;59.75;53.75;;;;;;;-0.92;100.00;100722.66;5058369;28;20191;-79
2023/01/28 00:10:24;;;;;;;61.10;54.13;;;;;;;-0.89;100.00;100731.19;5062443;28;20057;-80
2023/01/28 00:12:51;;;;;;;60.50;54.42;;;;;;;-1.05;100.00;100727.28;5060272;28;20479;-79
2023/01/28 00:15:18;;;;;;;63.38;55.22;;;;;;;-1.01;100.00;100726.03;5062579;28;20044;-79
2023/01/28 00:17:44;;;;;;;63.97;55.83;;;;;;;-1.06;100.00;100724.78;5058172;28;20594;-79
2023/01/28 00:20:12;;;;;;;61.65;54.92;;;;;;;-1.13;100.00;100737.50;5062551;28;20041;-79
2023/01/28 00:22:38;;;;;;;60.33;52.05;;;;;;;-1.14;100.00;100732.44;5062433;28;20579;-79
2023/01/28 00:25:07;;;;;;;57.30;51.25;;;;;;;-1.10;100.00;100742.47;5057513;28;20094;-79
2023/01/28 00:27:34;;;;;;;61.85;53.25;;;;;;;-1.17;100.00;100742.16;5063429;28;20110;-79
2023/01/28 00:30:00;;;;;;;62.85;54.30;;;;;;;-1.11;100.00;100745.22;5064441;28;20044;-79
2023/01/28 00:32:27;;;;;;;59.35;51.88;;;;;;;-1.17;100.00;100741.34;5062770;28;20480;-79
2023/01/28 00:34:54;;;;;;;60.75;54.25;;;;;;;-1.12;100.00;100749.63;5060294;28;20052;-79
2023/01/28 00:37:20;;;;;;;58.30;52.33;;;;;;;-1.24;100.00;100748.88;5061716;28;20045;-79
2023/01/28 00:39:47;;;;;;;59.83;52.92;;;;;;;-1.11;100.00;100750.44;5061559;28;20212;-79
2023/01/28 00:42:15;;;;;;;62.47;53.80;;;;;;;-1.26;100.00;100748.16;5063458;28;20566;-79
2023/01/28 00:44:42;;;;;;;61.83;55.47;;;;;;;-1.16;100.00;100756.03;5055264;28;20486;-79
2023/01/28 00:47:09;;;;;;;59.25;52.88;;;;;;;-1.16;100.00;100756.84;5056234;28;20049;-79
2023/01/28 00:49:35;;;;;;;58.03;51.80;;;;;;;-1.10;100.00;100768.53;5061467;28;20109;-79
2023/01/28 00:52:02;;;;;;;58.53;52.00;;;;;;;-1.21;100.00;100766.00;5056291;28;20037;-79
2023/01/28 00:54:29;;;;;;;57.67;51.47;;;;;;;-1.01;100.00;100759.94;5061882;28;20098;-79
2023/01/28 00:56:56;;;;;;;59.38;53.13;;;;;;;-1.05;100.00;100765.56;5066470;28;20067;-79
2023/01/28 00:59:24;;;;;;;57.50;51.42;;;;;;;-0.98;100.00;100764.91;5067891;28;20095;-79
2023/01/28 01:01:51;;;;;;;59.72;53.38;;;;;;;-1.04;100.00;100773.25;5068380;28;20044;-79
2023/01/28 01:04:25;;;;;;;60.03;53.92;;;;;;;-0.94;100.00;100771.53;5066042;28;20049;-79
2023/01/28 01:06:52;;;;;;;59.50;53.03;;;;;;;-0.99;100.00;100776.28;5068259;28;20044;-79
2023/01/28 01:09:18;;;;;;;60.80;53.67;;;;;;;-0.99;100.00;100771.06;5069770;28;20055;-79
2023/01/28 01:11:45;;;;;;;63.17;54.65;;;;;;;-0.96;100.00;100775.22;5068155;28;20048;-79
2023/01/28 01:14:12;;;;;;;60.88;54.58;;;;;;;-0.94;100.00;100781.09;5067231;28;20532;-80
2023/01/28 01:16:40;;;;;;;58.53;52.10;;;;;;;-0.99;100.00;100781.50;5067764;28;20049;-79
2023/01/28 01:19:07;;;;;;;57.88;51.70;;;;;;;-0.91;100.00;100788.66;5063758;28;20501;-79
2023/01/28 01:21:34;;;;;;;61.53;55.22;;;;;;;-0.99;100.00;100785.91;5067125;28;20114;-79
2023/01/28 01:24:01;;;;;;;58.03;51.72;;;;;;;-0.95;100.00;100790.72;5066704;28;20048;-79
2023/01/28 01:26:28;;;;;;;59.67;53.22;;;;;;;-1.04;100.00;100794.09;5069971;28;20469;-79
2023/01/28 01:28:55;;;;;;;56.53;50.95;;;;;;;-0.93;100.00;100793.19;5068984;28;20042;-79
2023/01/28 01:31:22;;;;;;;57.08;51.20;;;;;;;-0.94;100.00;100794.13;5064597;28;20041;-79
2023/01/28 01:33:52;;;;;;;56.03;50.17;;;;;;;-0.90;100.00;100799.94;5065460;28;20049;-79
2023/01/28 01:36:20;;;;;;;61.20;55.08;;;;;;;-0.91;100.00;100793.88;5067862;28;20486;-79
2023/01/28 01:38:47;;;;;;;62.50;55.95;;;;;;;-1.00;100.00;100797.25;5065052;28;20044;-79
2023/01/28 01:41:23;;;;;;;61.63;55.22;;;;;;;-1.01;100.00;100798.22;5070212;28;20049;-79
2023/01/28 01:43:52;;;;;;;62.33;55.67;;;;;;;-1.00;100.00;100797.25;5065065;28;20045;-79
2023/01/28 01:46:23;;;;;;;60.10;53.60;;;;;;;-0.92;100.00;100798.28;5066119;28;20074;-79
2023/01/28 01:48:53;;;;;;;57.80;52.00;;;;;;;-1.00;100.00;100799.88;5068743;28;20061;-79
2023/01/28 01:51:25;;;;;;;57.63;51.85;;;;;;;-1.02;100.00;100807.84;5066291;28;20047;-79
2023/01/28 01:53:53;;;;;;;;;;;;;;;-1.01;100.00;100806.88;5065692;28;20069;-79
2023/01/28 01:56:24;;;;;;;55.42;50.22;;;;;;;-1.11;100.00;100803.41;5067752;28;19979;-79
2023/01/28 01:58:53;;;;;;;53.17;48.13;;;;;;;-1.11;100.00;100802.56;5066587;28;20098;-79
2023/01/28 02:01:22;;;;;;;52.83;48.00;;;;;;;-1.15;100.00;100815.00;5063848;28;21076;-79
2023/01/28 02:03:55;;;;;;;53.60;48.28;;;;;;;-1.10;100.00;100815.47;5063434;28;20106;-79
2023/01/28 02:06:22;;;;;;;;;;;;;;;-1.10;100.00;100815.47;5068924;28;20049;-79
2023/01/28 02:08:48;;;;;;;54.47;49.33;;;;;;;-1.13;100.00;100820.94;5065417;28;20352;-79
2023/01/28 02:11:17;;;;;;;53.80;48.83;;;;;;;-1.09;100.00;100832.78;5068783;28;20040;-79
2023/01/28 02:13:48;;;;;;;51.90;46.80;;;;;;;-1.06;100.00;100824.69;5061951;28;20553;-79
2023/01/28 02:16:15;;;;;;;53.30;47.95;;;;;;;-1.14;100.00;100819.28;5069307;28;20102;-79
2023/01/28 02:18:42;;;;;;;53.90;48.80;;;;;;;-1.16;100.00;100819.41;5060350;28;20490;-79
2023/01/28 02:21:45;;;;;;;54.30;48.80;;;;;;;-1.14;100.00;100821.91;5061735;28;20049;-79
2023/01/28 02:24:46;;;;;;;54.88;49.42;;;;;;;-1.08;100.00;100826.59;5046937;28;20045;-79
2023/01/28 02:27:29;;;;;;;54.10;48.63;;;;;;;-1.12;100.00;100833.03;5064295;28;20570;-79
2023/01/28 02:29:59;;;;;;;;;;;;;;;-1.16;100.00;100835.03;5065984;28;20037;-79
2023/01/28 02:32:33;;;;;;;55.30;49.88;;;;;;;-1.13;100.00;100838.34;5069088;28;20392;-79
2023/01/28 02:35:10;;;;;;;51.80;47.17;;;;;;;-1.17;100.00;100835.19;5068790;28;20044;-79
2023/01/28 02:37:40;;;;;;;53.40;48.17;;;;;;;-1.18;100.00;100843.94;5066540;28;20041;-79
2023/01/28 02:40:13;;;;;;;56.25;50.90;;;;;;;-1.21;100.00;100836.38;5064222;28;20079;-79
2023/01/28 02:42:41;;;;;;;54.58;49.33;;;;;;;-1.24;100.00;100836.63;5065769;28;20115;-79
2023/01/28 02:45:17;;;;;;;56.60;51.13;;;;;;;-1.18;100.00;100842.19;5067132;28;20472;-79
2023/01/28 02:50:39;;;;;;;58.00;51.90;;;;;;;-1.31;100.00;100836.31;5063937;28;20144;-79
2023/01/28 02:56:12;;;;;;;56.28;50.63;;;;;;;-1.26;100.00;100841.16;5067160;28;20079;-79
2023/01/28 02:58:46;;;;;;;56.17;50.53;;;;;;;-1.29;100.00;100844.03;5060905;28;20352;-79
2023/01/28 03:01:23;;;;;;;55.03;49.40;;;;;;;-1.24;100.00;100836.63;5067907;28;20044;-79
2023/01/28 03:03:58;;;;;;;55.83;50.15;;;;;;;-1.24;100.00;100844.44;5065563;28;20098;-79
2023/01/28 03:06:31;;;;;;;54.47;49.00;;;;;;;-1.25;100.00;100837.59;5069792;28;20502;-79
2023/01/28 03:36:55;;;;;;;60.22;54.03;;;;;;;-1.25;100.00;100877.50;5068761;28;20040;-79
2023/01/28 03:39:25;;;;;;;58.55;52.38;;;;;;;-1.48;100.00;100865.53;5069810;28;20049;-79
2023/01/28 03:42:00;;;;;;;59.90;53.90;;;;;;;-1.34;100.00;100870.44;5065992;28;20103;-79
2023/01/28 03:47:11;;;;;;;63.78;56.90;;;;;;;-1.20;100.00;100872.75;5067066;28;20051;-79
2023/01/28 03:49:41;;;;;;;62.60;55.47;;;;;;;-1.23;100.00;100865.19;5066624;28;20052;-79
2023/01/28 03:52:08;;;;;;;60.65;54.25;;;;;;;-1.16;100.00;100875.94;5071166;28;20102;-79
2023/01/28 03:54:34;;;;;;;62.13;55.40;;;;;;;-1.31;100.00;100870.19;5070811;28;20052;-79
2023/01/28 03:57:01;;;;;;;78.82;63.50;;;;;;;-1.26;100.00;100865.44;5065344;28;20048;-79
2023/01/28 03:59:29;;;;;;;81.45;63.78;;;;;;;-1.36;100.00;100874.97;5064342;28;20055;-79
2023/01/28 04:01:56;;;;;;;74.25;62.05;;;;;;;-1.27;100.00;100871.63;5067646;28;20496;-79
2023/01/28 04:04:23;;;;;;;88.50;71.50;;;;;;;-1.23;100.00;100878.22;5063707;28;20041;-79
2023/01/28 04:06:52;;;;;;;86.88;68.57;;;;;;;-1.19;100.00;100878.78;5067533;28;20144;-79
2023/01/28 04:09:20;;;;;;;79.10;67.03;;;;;;;-1.22;100.00;100886.84;5070366;28;20049;-79
2023/01/28 04:11:47;;;;;;;69.72;59.85;;;;;;;-1.28;100.00;100885.56;5065328;28;20110;-79
2023/01/28 04:14:14;;;;;;;67.82;56.50;;;;;;;-1.29;100.00;100881.31;5066832;28;20478;-79
2023/01/28 04:16:41;;;;;;;73.72;61.75;;;;;;;-1.27;100.00;100886.41;5067016;28;20049;-79
2023/01/28 04:19:08;;;;;;;62.22;55.58;;;;;;;-1.39;100.00;100881.25;5065525;28;20555;-79
2023/01/28 04:21:35;;;;;;;67.28;60.05;;;;;;;-1.34;100.00;100880.03;5064680;28;20106;-79
2023/01/28 04:24:03;;;;;;;67.45;60.17;;;;;;;-1.27;100.00;100889.00;5059406;28;20057;-79
2023/01/28 04:26:30;;;;;;;125.90;88.38;;;;;;;-1.36;100.00;100888.00;5062737;28;20052;-80
2023/01/28 04:28:57;;;;;;;117.03;80.20;;;;;;;-1.34;100.00;100883.47;5063225;28;20114;-79
2023/01/28 04:31:24;;;;;;;86.35;66.40;;;;;;;-1.33;100.00;100885.16;5065955;28;20045;-79
2023/01/28 04:33:50;;;;;;;81.00;64.05;;;;;;;-1.38;100.00;100882.06;5066544;28;20053;-79
2023/01/28 04:36:17;;;;;;;78.63;63.03;;;;;;;-1.33;100.00;100887.75;5061182;28;20129;-79
2023/01/28 04:38:44;;;;;;;67.95;55.90;;;;;;;-1.29;100.00;100903.97;5070017;28;20500;-79
2023/01/28 04:41:12;;;;;;;69.03;57.25;;;;;;;-1.27;100.00;100895.06;5063329;28;20045;-79
2023/01/28 04:43:39;;;;;;;64.95;57.15;;;;;;;-1.26;100.00;100901.09;5066145;28;20102;-79
2023/01/28 04:46:06;;;;;;;63.58;55.97;;;;;;;-1.29;100.00;100901.34;5066361;28;20115;-79
2023/01/28 04:48:33;;;;;;;83.30;65.05;;;;;;;-1.38;100.00;100898.53;5064687;28;20049;-79
2023/01/28 04:51:00;;;;;;;79.15;62.22;;;;;;;-1.33;100.00;100903.38;5068588;28;20052;-79
2023/01/28 04:53:27;;;;;;;69.15;59.20;;;;;;;-1.42;100.00;100904.13;5073758;28;20053;-79
2023/01/28 04:55:54;;;;;;;71.25;58.22;;;;;;;-1.35;100.00;100907.06;5063694;28;20044;-79
2023/01/28 04:58:22;;;;;;;71.32;58.63;;;;;;;-1.33;100.00;100906.00;5066601;28;20114;-79
2023/01/28 05:00:53;;;;;;;83.70;65.10;;;;;;;-1.37;100.00;100909.78;5066157;28;20049;-79
2023/01/28 05:03:20;;;;;;;83.70;60.90;;;;;;;-1.36;100.00;100906.25;5067952;28;20044;-79
2023/01/28 05:05:47;;;;;;;90.25;68.90;;;;;;;-1.44;100.00;100911.22;5062350;28;20049;-79
2023/01/28 05:08:14;;;;;;;66.32;59.08;;;;;;;-1.41;100.00;100911.81;5074137;28;20102;-79
2023/01/28 05:10:40;;;;;;;66.47;56.72;;;;;;;-1.39;100.00;100912.53;5069888;28;20045;-80
2023/01/28 05:13:07;;;;;;;80.60;66.53;;;;;;;-1.45;100.00;100909.59;5067190;28;20122;-79
2023/01/28 05:15:35;;;;;;;77.40;61.50;;;;;;;-1.36;100.00;100914.06;5067458;28;20044;-78
2023/01/28 05:18:02;;;;;;;84.57;66.47;;;;;;;-1.39;100.00;100919.50;5066216;28;20410;-79
2023/01/28 05:20:29;;;;;;;81.53;68.88;;;;;;;-1.36;100.00;100921.88;5060586;28;20049;-79
2023/01/28 05:22:55;;;;;;;65.40;58.40;;;;;;;-1.36;100.00;100924.47;5074291;28;20045;-79
2023/01/28 05:25:22;;;;;;;72.65;57.97;;;;;;;-1.36;100.00;100923.63;5069460;28;20110;-79
2023/01/28 05:27:52;;;;;;;66.20;55.60;;;;;;;-1.41;100.00;100918.81;5059815;28;20053;-79
2023/01/28 05:30:19;;;;;;;83.53;68.25;;;;;;;-1.36;100.00;100926.22;5062247;28;20057;-79
2023/01/28 05:32:47;;;;;;;174.18;108.38;;;;;;;-1.36;100.00;100931.44;5066540;28;20514;-79
2023/01/28 05:35:14;;;;;;;122.15;73.03;;;;;;;-1.36;100.00;100937.50;5066595;28;20048;-79
2023/01/28 05:37:41;;;;;;;161.48;82.55;;;;;;;-1.22;100.00;100939.00;5066303;28;20498;-79
2023/01/28 05:40:09;;;;;;;133.20;77.85;;;;;;;-1.32;100.00;100932.88;5057852;28;20049;-79
2023/01/28 05:42:36;;;;;;;87.53;65.90;;;;;;;-1.34;100.00;100930.38;5055607;28;20488;-79
2023/01/28 05:45:03;;;;;;;77.05;60.88;;;;;;;-1.33;100.00;100944.22;5062635;28;20056;-79
2023/01/28 05:47:29;;;;;;;70.25;60.78;;;;;;;-1.41;100.00;100948.28;5063626;28;20576;-79
2023/01/28 05:49:57;;;;;;;64.70;57.70;;;;;;;-1.27;100.00;100941.13;5064494;28;20045;-79
2023/01/28 05:52:24;;;;;;;63.70;57.05;;;;;;;-1.34;100.00;100946.00;5070407;28;20075;-79
2023/01/28 05:54:51;;;;;;;59.42;53.63;;;;;;;-1.35;100.00;100946.97;5073874;28;20083;-79
2023/01/28 05:57:18;;;;;;;55.50;50.42;;;;;;;-1.31;100.00;100939.72;5069749;28;20049;-79
2023/01/28 05:59:45;;;;;;;55.75;50.38;;;;;;;-1.25;100.00;100947.06;5073516;28;20052;-79
2023/01/28 06:02:12;;;;;;;57.25;51.60;;;;;;;-1.25;100.00;100950.47;5069062;28;20439;-79
2023/01/28 06:04:39;;;;;;;53.35;48.45;;;;;;;-1.20;100.00;100957.94;5070790;28;20045;-79
2023/01/28 06:07:07;;;;;;;57.85;52.60;;;;;;;-1.20;100.00;100956.16;5064032;28;20113;-79
2023/01/28 06:09:33;;;;;;;52.38;47.38;;;;;;;-1.26;100.00;100958.44;5064287;28;20114;-79
2023/01/28 06:12:00;;;;;;;56.65;51.53;;;;;;;-1.17;100.00;100955.91;5059567;28;20498;-79
2023/01/28 06:14:27;;;;;;;58.65;52.47;;;;;;;-1.21;100.00;100956.28;5062236;28;20049;-79
2023/01/28 06:16:54;;;;;;;54.13;49.42;;;;;;;-1.24;100.00;100962.59;5070260;28;20102;-79
2023/01/28 06:19:21;;;;;;;56.05;51.10;;;;;;;-1.18;100.00;100956.88;5061272;28;20510;-79
2023/01/28 06:21:47;;;;;;;52.03;47.20;;;;;;;-1.10;100.00;100969.28;5071038;28;20421;-79
2023/01/28 06:24:15;;;;;;;50.17;45.58;;;;;;;-1.08;100.00;100969.16;5068149;28;20586;-79
2023/01/28 06:26:42;;;;;;;53.65;48.83;;;;;;;-1.05;100.00;100972.34;5061777;28;20045;-79
2023/01/28 06:29:09;;;;;;;53.45;48.65;;;;;;;-1.04;100.00;100960.13;5058457;28;20056;-79
2023/01/28 06:31:36;;;;;;;54.28;48.90;;;;;;;-0.97;100.00;100963.88;5062054;28;20041;-79
2023/01/28 06:34:03;;;;;;;56.85;51.78;;;;;;;-0.87;100.00;100974.41;5063700;28;20053;-79
2023/01/28 06:36:30;;;;;;;54.55;49.63;;;;;;;-0.87;100.00;100970.03;5058745;28;20045;-79
2023/01/28 06:38:57;;;;;;;53.33;48.38;;;;;;;-0.82;100.00;100974.84;5064206;28;20049;-79
2023/01/28 06:41:25;;;;;;;57.00;51.28;;;;;;;-0.79;100.00;100972.81;5059796;28;20453;-79
2023/01/28 06:43:52;;;;;;;56.65;50.95;;;;;;;-0.81;100.00;100979.97;5064857;28;20076;-80
2023/01/28 06:46:19;;;;;;;59.28;53.10;;;;;;;-0.70;100.00;100981.66;5065449;28;20044;-79
2023/01/28 06:48:45;;;;;;;64.75;58.20;;;;;;;-0.70;100.00;100981.66;5059170;28;20075;-79
2023/01/28 06:51:12;;;;;;;75.78;66.88;;;;;;;-0.63;100.00;100984.63;5062247;28;20049;-79
2023/01/28 06:53:39;;;;;;;61.38;54.92;;;;;;;-0.65;100.00;100996.94;5068939;28;20106;-79
2023/01/28 06:56:07;;;;;;;101.35;83.85;;;;;;;-0.63;100.00;100992.44;5063722;28;20498;-79
2023/01/28 06:58:35;;;;;;;70.88;63.22;;;;;;;-0.65;100.00;100994.34;5057972;28;20079;-79
2023/01/28 07:01:02;;;;;;;461.05;285.05;;;;;;;-0.56;100.00;100994.41;5060994;28;20114;-79
2023/01/28 07:03:29;;;;;;;172.15;112.65;;;;;;;-0.43;100.00;100998.59;5059749;28;20612;-79
2023/01/28 07:05:56;;;;;;;71.97;61.92;;;;;;;-0.47;100.00;100998.03;5066705;28;20113;-79
2023/01/28 07:08:22;;;;;;;58.58;52.80;;;;;;;-0.42;100.00;101002.88;5060996;28;20044;-79
2023/01/28 07:10:49;;;;;;;61.47;55.03;;;;;;;-0.52;100.00;101000.19;5057411;28;20115;-79
2023/01/28 07:13:16;;;;;;;58.00;52.00;;;;;;;-0.64;100.00;101002.03;5063204;28;20487;-80
2023/01/28 07:15:44;;;;;;;57.65;51.78;;;;;;;-0.42;100.00;101011.53;5061908;28;20045;-79
2023/01/28 07:18:10;;;;;;;55.83;50.47;;;;;;;-0.41;100.00;101010.59;5064322;28;20106;-79
2023/01/28 07:20:37;;;;;;;53.67;48.70;;;;;;;-0.47;100.00;101024.97;5063212;28;20113;-79
2023/01/28 07:23:04;;;;;;;54.78;49.35;;;;;;;-0.36;100.00;101021.47;5058747;28;20048;-79
2023/01/28 07:25:31;;;;;;;54.20;48.95;;;;;;;-0.39;100.00;101028.72;5064190;28;20400;-79
2023/01/28 07:27:57;;;;;;;54.83;49.85;;;;;;;-0.31;100.00;101039.34;5053301;28;20147;-79
2023/01/28 07:30:24;;;;;;;55.75;50.55;;;;;;;-0.41;100.00;101038.47;5059251;28;20048;-79
2023/01/28 07:32:56;;;;;;;54.35;49.47;;;;;;;-0.51;100.00;101043.63;5062419;28;20083;-78
2023/01/28 07:35:24;;;;;;;58.03;52.40;;;;;;;-0.55;100.00;101048.25;5059145;28;20094;-80
2023/01/28 07:37:54;;;;;;;56.05;51.05;;;;;;;-0.35;100.00;101048.41;5062573;28;20109;-80
2023/01/28 07:40:21;;;;;;;53.47;48.38;;;;;;;-0.24;100.00;101058.78;5059107;28;20465;-79
2023/01/28 07:42:47;;;;;;;56.53;51.00;;;;;;;-0.21;100.00;101060.28;5056065;28;20045;-80
2023/01/28 07:45:14;;;;;;;57.78;52.47;;;;;;;-0.32;100.00;101056.81;5057696;28;20056;-79
2023/01/28 07:47:42;;;;;;;58.28;52.67;;;;;;;-0.34;100.00;101060.50;5058061;28;20122;-79
2023/01/28 07:50:12;;;;;;;58.05;52.33;;;;;;;-0.26;100.00;101056.28;5063337;28;20482;-79
2023/01/28 07:52:43;;;;;;;60.08;53.80;;;;;;;-0.19;100.00;101064.44;5059178;28;20484;-79
2023/01/28 07:55:11;;;;;;;54.30;49.10;;;;;;;-0.33;100.00;101067.38;5059343;28;20433;-80
2023/01/28 07:57:38;;;;;;;54.95;49.60;;;;;;;-0.29;100.00;101066.16;5058618;28;20416;-79
2023/01/28 08:00:05;;;;;;;59.13;52.85;;;;;;;-0.05;100.00;101065.91;5060457;28;20559;-79
2023/01/28 08:02:32;;;;;;;80.25;61.55;;;;;;;0.05;100.00;101060.75;5060370;28;20044;-80
2023/01/28 08:05:00;;;;;;;69.75;59.20;;;;;;;0.02;100.00;101061.81;5055995;28;20049;-79
2023/01/28 08:07:29;;;;;;;60.28;53.75;;;;;;;-0.02;100.00;101063.88;5055677;28;20049;-79
2023/01/28 08:09:56;;;;;;;56.65;50.92;;;;;;;-0.17;100.00;101072.16;5063184;28;20102;-79
2023/01/28 08:12:23;;;;;;;54.80;49.72;;;;;;;-0.14;100.00;101070.13;5061777;28;20310;-79
2023/01/28 08:14:50;;;;;;;52.85;48.08;;;;;;;-0.10;100.00;101066.28;5057931;28;20048;-79
2023/01/28 08:17:16;;;;;;;54.55;49.63;;;;;;;0.05;100.00;101055.50;5061052;28;20052;-79
2023/01/28 08:19:43;;;;;;;55.67;50.25;;;;;;;-0.05;100.00;101065.91;5064315;28;20052;-79
2023/01/28 08:22:10;;;;;;;56.38;51.00;;;;;;;-0.16;100.00;101063.34;5064211;28;20049;-79
2023/01/28 08:24:38;;;;;;;59.10;53.10;;;;;;;-0.15;100.00;101072.84;5057300;28;20109;-78
2023/01/28 08:27:04;;;;;;;62.33;55.92;;;;;;;0.19;100.00;101068.25;5065777;28;20114;-78
2023/01/28 08:29:33;;;;;;;66.78;59.42;;;;;;;-0.42;100.00;101078.56;5062421;28;20107;-78
2023/01/28 08:31:59;;;;;;;65.70;57.92;;;;;;;0.17;100.00;101091.88;5057882;28;20127;-78
2023/01/28 08:34:26;;;;;;;70.35;57.85;;;;;;;0.08;100.00;101081.38;5061772;28;20106;-78
2023/01/28 08:36:53;;;;;;;63.38;56.70;;;;;;;0.04;100.00;101088.66;5066290;28;20048;-78
2023/01/28 08:39:19;;;;;;;63.05;56.15;;;;;;;0.01;100.00;101088.91;5064498;28;20117;-78
2023/01/28 08:41:47;;;;;;;64.00;57.17;;;;;;;0.21;100.00;101080.22;5056325;28;20052;-79
2023/01/28 08:44:16;;;;;;;57.70;49.55;;;;;;;3.38;100.00;101087.16;5058852;28;20059;-81
2023/01/28 08:46:42;;;;;;;63.72;57.35;;;;;;;0.34;100.00;101093.06;5059341;28;20072;-80
2023/01/28 08:49:09;;;;;;;64.75;57.72;;;;;;;0.08;100.00;101089.22;5061412;28;20045;-80
2023/01/28 08:51:36;;;;;;;92.97;71.15;;;;;;;0.23;100.00;101080.91;5059332;28;20086;-79
2023/01/28 08:54:03;;;;;;;66.07;59.45;;;;;;;0.22;100.00;101089.72;5053096;28;20057;-80
2023/01/28 08:56:30;;;;;;;65.25;56.53;;;;;;;-0.06;100.00;101093.81;5060775;28;20049;-80
2023/01/28 08:58:58;;;;;;;66.80;59.65;;;;;;;-0.11;100.00;101089.94;5061935;28;20455;-80
2023/01/28 09:01:28;;;;;;;92.40;75.38;;;;;;;-0.32;100.00;101090.72;5059764;28;20053;-79
2023/01/28 09:03:55;;;;;;;82.15;68.00;;;;;;;-0.28;100.00;101088.69;5058609;28;20048;-79
2023/01/28 09:06:21;;;;;;;68.53;59.33;;;;;;;-0.37;100.00;101090.28;5062824;28;20472;-79
2023/01/28 09:08:48;;;;;;;62.08;55.47;;;;;;;-0.25;100.00;101086.66;5061505;28;20174;-79
2023/01/28 09:11:15;;;;;;;61.88;55.92;;;;;;;-0.32;100.00;101098.56;5063816;28;20105;-79
2023/01/28 09:13:41;;;;;;;53.67;48.88;;;;;;;-0.29;100.00;101095.69;5063083;28;20044;-79
2023/01/28 09:16:10;;;;;;;52.70;47.97;;;;;;;-0.33;100.00;101103.94;5062474;28;20118;-79
2023/01/28 09:18:36;;;;;;;52.83;48.00;;;;;;;-0.26;100.00;101099.84;5066855;28;20045;-79
2023/01/28 09:21:05;;;;;;;51.75;47.13;;;;;;;-0.21;100.00;101102.91;5064158;28;20506;-79
2023/01/28 09:23:34;;;;;;;53.65;48.85;;;;;;;-0.26;100.00;101110.28;5071325;28;20132;-79
2023/01/28 09:26:02;;;;;;;51.83;46.83;;;;;;;-0.26;100.00;101105.06;5064910;28;20049;-79
2023/01/28 09:28:29;;;;;;;51.53;46.88;;;;;;;-0.13;100.00;101107.50;5065876;28;20049;-79
2023/01/28 09:31:01;;;;;;;53.03;47.83;;;;;;;-0.23;100.00;101094.38;5065536;28;20045;-79
2023/01/28 09:33:30;;;;;;;52.88;47.97;;;;;;;-0.21;100.00;101100.31;5065365;28;20048;-79
2023/01/28 09:35:59;;;;;;;52.72;47.72;;;;;;;-0.07;100.00;101099.16;5065330;28;20048;-78
2023/01/28 09:38:25;;;;;;;54.00;48.78;;;;;;;-0.34;100.00;101095.25;5061980;28;20102;-79
2023/01/28 09:40:54;;;;;;;54.80;49.42;;;;;;;-0.32;100.00;101095.13;5064453;28;20110;-79
2023/01/28 09:43:36;;;;;;;53.60;48.53;;;;;;;-0.13;100.00;101095.25;5064391;28;20041;-80
2023/01/28 09:46:05;;;;;;;52.37;47.50;;;;;;;-0.02;100.00;101095.22;5064029;28;20570;-79
2023/01/28 09:48:38;;;;;;;52.40;47.38;;;;;;;-0.10;100.00;101102.84;5066233;28;20373;-79
2023/01/28 09:51:09;;;;;;;54.33;49.17;;;;;;;-0.17;100.00;101100.88;5066953;28;20048;-79
2023/01/28 09:53:42;;;;;;;59.65;53.90;;;;;;;0.02;100.00;101108.81;5057153;28;20118;-79
2023/01/28 09:56:13;;;;;;;58.90;52.63;;;;;;;0.18;100.00;101105.75;5064746;28;20041;-79
2023/01/28 09:58:42;;;;;;;52.97;47.97;;;;;;;0.16;100.00;101105.91;5066170;28;20048;-79
2023/01/28 10:01:29;;;;;;;52.08;47.22;;;;;;;-0.11;100.00;101109.03;5065267;28;20287;-79
2023/01/28 10:04:13;;;;;;;53.55;48.78;;;;;;;0.22;100.00;101101.94;5064950;28;20548;-78
2023/01/28 10:06:51;;;;;;;50.97;46.40;;;;;;;0.05;100.00;101105.97;5064411;28;20049;-79
2023/01/28 10:09:35;;;;;;;46.53;43.25;;;;;;;0.37;100.00;101103.25;5060554;28;20049;-79
2023/01/28 10:12:16;;;;;;;49.55;45.50;;;;;;;0.05;100.00;101107.75;5063744;28;20506;-79
2023/01/28 10:14:54;;;;;;;49.35;45.47;;;;;;;0.12;100.00;101114.09;5064797;28;20053;-79
2023/01/28 10:17:26;;;;;;;53.15;48.35;;;;;;;0.01;100.00;101116.81;5065079;28;20060;-79
2023/01/28 10:20:00;;;;;;;53.67;48.67;;;;;;;-0.04;100.00;101114.56;5064194;28;20045;-79
2023/01/28 10:22:32;;;;;;;48.47;44.67;;;;;;;0.15;100.00;101116.47;5061189;28;20053;-79
2023/01/28 10:25:05;;;;;;;54.63;49.25;;;;;;;0.00;100.00;101113.38;5065501;28;20052;-79
2023/01/28 10:27:34;;;;;;;54.15;48.95;;;;;;;0.02;100.00;101114.06;5057165;28;20052;-79
2023/01/28 10:30:17;;;;;;;55.65;50.45;;;;;;;-0.05;100.00;101124.19;5066026;28;20045;-79
2023/01/28 10:32:49;;;;;;;53.15;48.40;;;;;;;-0.12;100.00;101119.59;5062108;28;20053;-79
2023/01/28 10:35:17;;;;;;;;;;;;;;;-0.17;100.00;101119.97;5066102;28;20044;-78
2023/01/28 10:37:44;;;;;;;48.30;44.05;;;;;;;0.19;100.00;101112.66;5064220;28;19924;-80
2023/01/28 10:40:14;;;;;;;52.78;47.97;;;;;;;-0.23;100.00;101123.09;5070624;28;20399;-79
2023/01/28 10:42:41;;;;;;;46.80;43.35;;;;;;;0.49;100.00;101105.81;5063947;28;20045;-80
2023/01/28 10:45:17;;;;;;;50.70;46.30;;;;;;;-0.02;100.00;101120.50;5074428;28;20048;-79
2023/01/28 10:47:46;;;;;;;52.03;47.53;;;;;;;-0.13;100.00;101120.53;5068894;28;20057;-79
2023/01/28 10:50:18;;;;;;;52.38;47.28;;;;;;;-0.15;100.00;101114.63;5067195;28;20052;-79
2023/01/28 10:52:52;;;;;;;;;;;;;;;0.07;100.00;101121.53;5062889;28;20045;-79
2023/01/28 10:55:19;;;;;;;56.35;50.88;;;;;;;-0.06;100.00;101119.94;5065924;28;19944;-79
2023/01/28 10:57:46;;;;;;;55.45;50.08;;;;;;;0.08;100.00;101126.59;5072535;28;20048;-80
2023/01/28 11:00:24;;;;;;;51.90;47.40;;;;;;;0.09;100.00;101119.59;5068993;28;20048;-80
2023/01/28 11:02:51;;;;;;;55.97;50.88;;;;;;;-0.20;100.00;101122.03;5068409;28;20044;-79
2023/01/28 11:05:24;;;;;;;55.45;50.20;;;;;;;0.02;100.00;101119.28;5065448;28;20045;-80
2023/01/28 11:07:51;;;;;;;51.08;46.55;;;;;;;-0.13;100.00;101121.38;5075278;28;20048;-79
2023/01/28 11:10:32;;;;;;;49.95;45.33;;;;;;;0.13;100.00;101116.59;5066550;28;20060;-80
2023/01/28 11:13:01;;;;;;;56.97;51.38;;;;;;;0.12;100.00;101121.94;5070983;28;20052;-80
2023/01/28 11:15:28;;;;;;;52.08;47.67;;;;;;;-0.04;100.00;101127.63;5070229;28;20048;-79
2023/01/28 11:17:58;;;;;;;53.72;48.20;;;;;;;-0.20;100.00;101116.78;5069825;28;20049;-79
2023/01/28 11:20:29;;;;;;;60.72;55.13;;;;;;;-0.35;100.00;101116.25;5065002;28;20482;-80
2023/01/28 11:22:57;;;;;;;183.88;107.03;;;;;;;-0.12;100.00;101116.97;5076658;28;20498;-79
2023/01/28 11:25:30;;;;;;;105.25;73.35;;;;;;;0.49;100.00;101114.47;5067849;28;20045;-80
2023/01/28 11:27:58;;;;;;;127.80;82.72;;;;;;;0.41;100.00;101115.09;5074365;28;20098;-80
2023/01/28 11:30:27;;;;;;;66.07;59.50;;;;;;;0.89;100.00;101114.47;5068377;28;20045;-80
2023/01/28 11:33:00;;;;;;;71.88;64.20;;;;;;;0.72;100.00;101109.03;5071098;28;20524;-80
2023/01/28 11:35:31;;;;;;;92.95;79.40;;;;;;;-0.01;100.00;101099.47;5069731;28;20041;-80
2023/01/28 11:37:58;;;;;;;65.03;57.95;;;;;;;-0.12;100.00;101116.97;5070076;28;20052;-80
2023/01/28 11:40:26;;;;;;;66.13;59.38;;;;;;;0.41;100.00;101107.25;5070596;28;20060;-79
2023/01/28 11:42:56;;;;;;;59.92;53.78;;;;;;;0.14;100.00;101105.19;5069843;28;20057;-79
2023/01/28 11:45:37;;;;;;;51.10;46.42;;;;;;;0.09;100.00;101103.91;5070513;28;20179;-80
2023/01/28 11:48:19;;;;;;;59.83;54.10;;;;;;;-0.19;100.00;101106.22;5069698;28;20529;-80